sensor_id;sensor_type;location;lat;lon;timestamp;temperature;humidity
24217;DHT22;12356;49.386;8.688;2022-11-02T00:00:41;13.70;40.80
24217;DHT22;12356;49.386;8.688;2022-11-02T00:03:12;13.70;40.80
24217;DHT22;12356;49.386;8.688;2022-11-02T00:05:42;13.70;41.10
24217;DHT22;12356;49.386;8.688;2022-11-02T00:08:13;13.70;40.60
24217;DHT22;12356;49.386;8.688;2022-11-02T00:10:43;13.70;40.70
24217;DHT22;12356;49.386;8.688;2022-11-02T00:13:14;13.60;40.40
24217;DHT22;12356;49.386;8.688;2022-11-02T00:15:45;13.70;39.70
24217;DHT22;12356;49.386;8.688;2022-11-02T00:18:16;13.70;40.30
24217;DHT22;12356;49.386;8.688;2022-11-02T00:20:47;13.70;40.30
24217;DHT22;12356;49.386;8.688;2022-11-02T00:23:18;13.70;40.50
24217;DHT22;12356;49.386;8.688;2022-11-02T00:25:50;13.70;40.10
24217;DHT22;12356;49.386;8.688;2022-11-02T00:28:22;13.60;40.10
24217;DHT22;12356;49.386;8.688;2022-11-02T00:30:53;13.60;40.50
24217;DHT22;12356;49.386;8.688;2022-11-02T00:33:24;13.60;41.90
24217;DHT22;12356;49.386;8.688;2022-11-02T00:35:55;13.50;41.50
24217;DHT22;12356;49.386;8.688;2022-11-02T00:38:26;13.50;41.60
24217;DHT22;12356;49.386;8.688;2022-11-02T00:40:57;13.50;42.70
24217;DHT22;12356;49.386;8.688;2022-11-02T00:43:28;13.50;42.00
24217;DHT22;12356;49.386;8.688;2022-11-02T00:45:59;13.50;42.50
24217;DHT22;12356;49.386;8.688;2022-11-02T00:48:29;13.50;42.60
24217;DHT22;12356;49.386;8.688;2022-11-02T00:51:00;13.50;42.70
24217;DHT22;12356;49.386;8.688;2022-11-02T00:53:30;13.50;42.90
24217;DHT22;12356;49.386;8.688;2022-11-02T00:56:01;13.50;42.90
24217;DHT22;12356;49.386;8.688;2022-11-02T00:58:32;13.50;43.20
24217;DHT22;12356;49.386;8.688;2022-11-02T01:01:06;13.50;43.00
24217;DHT22;12356;49.386;8.688;2022-11-02T01:03:37;13.50;43.10
24217;DHT22;12356;49.386;8.688;2022-11-02T01:06:09;13.50;42.80
24217;DHT22;12356;49.386;8.688;2022-11-02T01:08:40;13.40;42.90
24217;DHT22;12356;49.386;8.688;2022-11-02T01:11:20;13.50;43.40
24217;DHT22;12356;49.386;8.688;2022-11-02T01:13:51;13.40;43.50
24217;DHT22;12356;49.386;8.688;2022-11-02T01:16:22;13.40;43.40
24217;DHT22;12356;49.386;8.688;2022-11-02T01:18:54;13.40;43.90
24217;DHT22;12356;49.386;8.688;2022-11-02T01:21:25;13.40;44.60
24217;DHT22;12356;49.386;8.688;2022-11-02T01:23:56;13.40;44.20
24217;DHT22;12356;49.386;8.688;2022-11-02T01:26:26;13.40;43.90
24217;DHT22;12356;49.386;8.688;2022-11-02T01:28:58;13.40;44.20
24217;DHT22;12356;49.386;8.688;2022-11-02T01:31:29;13.40;44.70
24217;DHT22;12356;49.386;8.688;2022-11-02T01:33:59;13.40;45.20
24217;DHT22;12356;49.386;8.688;2022-11-02T01:36:30;13.40;45.30
24217;DHT22;12356;49.386;8.688;2022-11-02T01:39:01;13.40;46.00
24217;DHT22;12356;49.386;8.688;2022-11-02T01:41:32;13.40;46.20
24217;DHT22;12356;49.386;8.688;2022-11-02T01:44:03;13.40;46.80
24217;DHT22;12356;49.386;8.688;2022-11-02T01:46:37;13.40;45.90
24217;DHT22;12356;49.386;8.688;2022-11-02T01:49:12;13.40;46.00
24217;DHT22;12356;49.386;8.688;2022-11-02T01:52:01;13.40;45.70
24217;DHT22;12356;49.386;8.688;2022-11-02T01:57:14;13.50;45.20
24217;DHT22;12356;49.386;8.688;2022-11-02T01:59:54;13.50;45.20
24217;DHT22;12356;49.386;8.688;2022-11-02T02:02:27;13.50;44.70
24217;DHT22;12356;49.386;8.688;2022-11-02T02:05:04;13.60;44.40
24217;DHT22;12356;49.386;8.688;2022-11-02T02:07:37;13.60;43.50
24217;DHT22;12356;49.386;8.688;2022-11-02T02:10:08;13.60;43.30
24217;DHT22;12356;49.386;8.688;2022-11-02T02:12:40;13.70;43.80
24217;DHT22;12356;49.386;8.688;2022-11-02T02:15:12;13.70;43.40
24217;DHT22;12356;49.386;8.688;2022-11-02T02:17:59;13.70;43.50
24217;DHT22;12356;49.386;8.688;2022-11-02T02:23:58;13.70;42.50
24217;DHT22;12356;49.386;8.688;2022-11-02T02:26:48;13.70;42.40
24217;DHT22;12356;49.386;8.688;2022-11-02T02:29:31;13.70;41.70
24217;DHT22;12356;49.386;8.688;2022-11-02T02:32:14;13.80;41.80
24217;DHT22;12356;49.386;8.688;2022-11-02T02:34:53;13.80;41.80
24217;DHT22;12356;49.386;8.688;2022-11-02T02:40:13;13.80;41.50
24217;DHT22;12356;49.386;8.688;2022-11-02T02:42:53;13.80;41.00
24217;DHT22;12356;49.386;8.688;2022-11-02T02:48:10;13.80;41.20
24217;DHT22;12356;49.386;8.688;2022-11-02T02:51:00;13.80;41.30
24217;DHT22;12356;49.386;8.688;2022-11-02T02:53:39;13.80;41.10
24217;DHT22;12356;49.386;8.688;2022-11-02T02:56:13;13.90;41.10
24217;DHT22;12356;49.386;8.688;2022-11-02T02:59:06;13.90;41.00
24217;DHT22;12356;49.386;8.688;2022-11-02T03:01:41;13.80;40.00
24217;DHT22;12356;49.386;8.688;2022-11-02T03:04:14;13.80;40.10
24217;DHT22;12356;49.386;8.688;2022-11-02T03:06:49;13.80;40.00
24217;DHT22;12356;49.386;8.688;2022-11-02T03:09:32;13.80;39.70
24217;DHT22;12356;49.386;8.688;2022-11-02T03:17:45;13.70;39.50
24217;DHT22;12356;49.386;8.688;2022-11-02T03:30:02;13.70;39.60
24217;DHT22;12356;49.386;8.688;2022-11-02T03:35:50;13.60;40.00
24217;DHT22;12356;49.386;8.688;2022-11-02T03:38:27;13.50;40.00
24217;DHT22;12356;49.386;8.688;2022-11-02T03:41:02;13.60;40.10
24217;DHT22;12356;49.386;8.688;2022-11-02T03:43:35;13.60;40.30
24217;DHT22;12356;49.386;8.688;2022-11-02T03:46:07;13.50;40.10
24217;DHT22;12356;49.386;8.688;2022-11-02T03:48:44;13.60;40.80
24217;DHT22;12356;49.386;8.688;2022-11-02T03:51:18;13.60;40.40
24217;DHT22;12356;49.386;8.688;2022-11-02T03:56:44;13.60;40.60
24217;DHT22;12356;49.386;8.688;2022-11-02T03:59:16;13.60;40.10
24217;DHT22;12356;49.386;8.688;2022-11-02T04:01:49;13.60;40.50
24217;DHT22;12356;49.386;8.688;2022-11-02T04:04:20;13.70;39.80
24217;DHT22;12356;49.386;8.688;2022-11-02T04:06:51;13.70;39.40
24217;DHT22;12356;49.386;8.688;2022-11-02T04:09:23;13.70;39.50
24217;DHT22;12356;49.386;8.688;2022-11-02T04:11:53;13.80;40.30
24217;DHT22;12356;49.386;8.688;2022-11-02T04:14:42;13.80;39.50
24217;DHT22;12356;49.386;8.688;2022-11-02T04:17:13;13.80;39.30
24217;DHT22;12356;49.386;8.688;2022-11-02T04:20:02;13.80;39.20
24217;DHT22;12356;49.386;8.688;2022-11-02T04:22:33;13.80;38.60
24217;DHT22;12356;49.386;8.688;2022-11-02T04:25:22;13.80;38.60
24217;DHT22;12356;49.386;8.688;2022-11-02T04:27:53;13.80;38.30
24217;DHT22;12356;49.386;8.688;2022-11-02T04:30:23;13.90;38.60
24217;DHT22;12356;49.386;8.688;2022-11-02T04:32:54;13.90;38.00
24217;DHT22;12356;49.386;8.688;2022-11-02T04:35:43;13.90;37.80
24217;DHT22;12356;49.386;8.688;2022-11-02T04:38:14;13.90;38.10
24217;DHT22;12356;49.386;8.688;2022-11-02T04:41:04;13.90;38.40
24217;DHT22;12356;49.386;8.688;2022-11-02T04:43:54;13.90;38.30
24217;DHT22;12356;49.386;8.688;2022-11-02T04:46:27;13.90;39.20
24217;DHT22;12356;49.386;8.688;2022-11-02T04:48:58;13.90;39.60
24217;DHT22;12356;49.386;8.688;2022-11-02T04:51:29;13.90;39.20
24217;DHT22;12356;49.386;8.688;2022-11-02T04:54:01;13.90;39.30
24217;DHT22;12356;49.386;8.688;2022-11-02T04:56:31;13.90;39.60
24217;DHT22;12356;49.386;8.688;2022-11-02T04:59:02;13.80;39.30
24217;DHT22;12356;49.386;8.688;2022-11-02T05:01:32;13.80;39.60
24217;DHT22;12356;49.386;8.688;2022-11-02T05:04:03;13.80;39.80
24217;DHT22;12356;49.386;8.688;2022-11-02T05:06:35;13.80;40.00
24217;DHT22;12356;49.386;8.688;2022-11-02T05:09:06;13.80;40.30
24217;DHT22;12356;49.386;8.688;2022-11-02T05:11:36;13.80;41.10
24217;DHT22;12356;49.386;8.688;2022-11-02T05:14:07;13.70;41.70
24217;DHT22;12356;49.386;8.688;2022-11-02T05:16:38;13.70;41.80
24217;DHT22;12356;49.386;8.688;2022-11-02T05:19:08;13.70;42.10
24217;DHT22;12356;49.386;8.688;2022-11-02T05:21:39;13.70;42.00
24217;DHT22;12356;49.386;8.688;2022-11-02T05:24:09;13.70;42.40
24217;DHT22;12356;49.386;8.688;2022-11-02T05:26:40;13.60;42.30
24217;DHT22;12356;49.386;8.688;2022-11-02T05:29:11;13.60;42.70
24217;DHT22;12356;49.386;8.688;2022-11-02T05:31:41;13.60;42.90
24217;DHT22;12356;49.386;8.688;2022-11-02T05:34:12;13.60;43.20
24217;DHT22;12356;49.386;8.688;2022-11-02T05:36:43;13.50;43.90
24217;DHT22;12356;49.386;8.688;2022-11-02T05:39:14;13.50;44.20
24217;DHT22;12356;49.386;8.688;2022-11-02T05:41:44;13.50;44.60
24217;DHT22;12356;49.386;8.688;2022-11-02T05:44:15;13.50;44.50
24217;DHT22;12356;49.386;8.688;2022-11-02T05:46:45;13.50;44.70
24217;DHT22;12356;49.386;8.688;2022-11-02T05:49:16;13.40;45.10
24217;DHT22;12356;49.386;8.688;2022-11-02T05:51:47;13.40;46.00
24217;DHT22;12356;49.386;8.688;2022-11-02T05:54:18;13.30;46.40
24217;DHT22;12356;49.386;8.688;2022-11-02T05:56:49;13.30;46.40
24217;DHT22;12356;49.386;8.688;2022-11-02T05:59:20;13.30;47.00
24217;DHT22;12356;49.386;8.688;2022-11-02T06:01:51;13.30;46.80
24217;DHT22;12356;49.386;8.688;2022-11-02T06:04:21;13.40;47.30
24217;DHT22;12356;49.386;8.688;2022-11-02T06:06:52;13.30;46.80
24217;DHT22;12356;49.386;8.688;2022-11-02T06:09:22;13.30;46.70
24217;DHT22;12356;49.386;8.688;2022-11-02T06:11:55;13.30;46.70
24217;DHT22;12356;49.386;8.688;2022-11-02T06:14:25;13.30;46.90
24217;DHT22;12356;49.386;8.688;2022-11-02T06:16:56;13.20;47.00
24217;DHT22;12356;49.386;8.688;2022-11-02T06:19:27;13.20;47.10
24217;DHT22;12356;49.386;8.688;2022-11-02T06:21:57;13.20;47.60
24217;DHT22;12356;49.386;8.688;2022-11-02T06:24:28;13.10;47.70
24217;DHT22;12356;49.386;8.688;2022-11-02T06:26:58;13.10;48.30
24217;DHT22;12356;49.386;8.688;2022-11-02T06:29:29;13.10;48.60
24217;DHT22;12356;49.386;8.688;2022-11-02T06:32:00;13.00;49.20
24217;DHT22;12356;49.386;8.688;2022-11-02T06:34:30;13.00;49.20
24217;DHT22;12356;49.386;8.688;2022-11-02T06:37:01;13.00;49.80
24217;DHT22;12356;49.386;8.688;2022-11-02T06:39:31;13.00;50.30
24217;DHT22;12356;49.386;8.688;2022-11-02T06:42:03;13.00;50.80
24217;DHT22;12356;49.386;8.688;2022-11-02T06:44:33;13.00;51.60
24217;DHT22;12356;49.386;8.688;2022-11-02T06:47:04;13.00;51.60
24217;DHT22;12356;49.386;8.688;2022-11-02T06:49:35;12.90;51.70
24217;DHT22;12356;49.386;8.688;2022-11-02T06:52:05;12.90;52.30
24217;DHT22;12356;49.386;8.688;2022-11-02T06:54:36;12.90;52.40
24217;DHT22;12356;49.386;8.688;2022-11-02T06:57:07;12.90;53.10
24217;DHT22;12356;49.386;8.688;2022-11-02T06:59:37;12.90;53.20
24217;DHT22;12356;49.386;8.688;2022-11-02T07:02:08;12.90;53.60
24217;DHT22;12356;49.386;8.688;2022-11-02T07:04:39;13.00;54.00
24217;DHT22;12356;49.386;8.688;2022-11-02T07:07:09;13.00;53.70
24217;DHT22;12356;49.386;8.688;2022-11-02T07:09:40;13.00;53.80
24217;DHT22;12356;49.386;8.688;2022-11-02T07:12:11;13.00;53.90
24217;DHT22;12356;49.386;8.688;2022-11-02T07:14:41;13.00;54.00
24217;DHT22;12356;49.386;8.688;2022-11-02T07:17:12;13.00;53.80
24217;DHT22;12356;49.386;8.688;2022-11-02T07:19:42;13.00;53.90
24217;DHT22;12356;49.386;8.688;2022-11-02T07:22:13;13.00;53.70
24217;DHT22;12356;49.386;8.688;2022-11-02T07:24:44;13.00;54.00
24217;DHT22;12356;49.386;8.688;2022-11-02T07:27:15;13.00;54.10
24217;DHT22;12356;49.386;8.688;2022-11-02T07:29:46;13.00;54.20
24217;DHT22;12356;49.386;8.688;2022-11-02T07:32:17;13.10;54.20
24217;DHT22;12356;49.386;8.688;2022-11-02T07:34:47;13.10;53.90
24217;DHT22;12356;49.386;8.688;2022-11-02T07:37:18;13.10;53.80
24217;DHT22;12356;49.386;8.688;2022-11-02T07:39:49;13.10;53.80
24217;DHT22;12356;49.386;8.688;2022-11-02T07:42:19;13.20;53.60
24217;DHT22;12356;49.386;8.688;2022-11-02T07:44:50;13.20;53.70
24217;DHT22;12356;49.386;8.688;2022-11-02T07:47:21;13.20;53.60
24217;DHT22;12356;49.386;8.688;2022-11-02T07:49:51;13.20;53.70
24217;DHT22;12356;49.386;8.688;2022-11-02T07:52:22;13.10;54.20
24217;DHT22;12356;49.386;8.688;2022-11-02T07:54:52;13.10;54.20
24217;DHT22;12356;49.386;8.688;2022-11-02T07:57:23;13.10;54.20
24217;DHT22;12356;49.386;8.688;2022-11-02T07:59:54;13.20;54.10
24217;DHT22;12356;49.386;8.688;2022-11-02T08:02:24;13.20;53.90
24217;DHT22;12356;49.386;8.688;2022-11-02T08:04:55;13.20;54.10
24217;DHT22;12356;49.386;8.688;2022-11-02T08:07:25;13.20;54.00
24217;DHT22;12356;49.386;8.688;2022-11-02T08:09:56;13.20;53.90
24217;DHT22;12356;49.386;8.688;2022-11-02T08:12:27;13.30;54.70
24217;DHT22;12356;49.386;8.688;2022-11-02T08:14:57;13.30;54.60
24217;DHT22;12356;49.386;8.688;2022-11-02T08:17:28;13.30;54.80
24217;DHT22;12356;49.386;8.688;2022-11-02T08:19:59;13.30;54.30
24217;DHT22;12356;49.386;8.688;2022-11-02T08:22:29;13.30;54.30
24217;DHT22;12356;49.386;8.688;2022-11-02T08:25:00;13.30;54.70
24217;DHT22;12356;49.386;8.688;2022-11-02T08:27:31;13.30;54.50
24217;DHT22;12356;49.386;8.688;2022-11-02T08:30:02;13.40;55.00
24217;DHT22;12356;49.386;8.688;2022-11-02T08:32:33;13.40;54.90
24217;DHT22;12356;49.386;8.688;2022-11-02T08:35:04;13.50;55.10
24217;DHT22;12356;49.386;8.688;2022-11-02T08:37:35;13.50;54.80
24217;DHT22;12356;49.386;8.688;2022-11-02T08:40:06;13.50;54.70
24217;DHT22;12356;49.386;8.688;2022-11-02T08:42:37;13.50;55.10
24217;DHT22;12356;49.386;8.688;2022-11-02T08:45:08;13.50;55.20
24217;DHT22;12356;49.386;8.688;2022-11-02T08:47:40;13.60;55.20
24217;DHT22;12356;49.386;8.688;2022-11-02T08:50:11;13.60;55.50
24217;DHT22;12356;49.386;8.688;2022-11-02T08:52:41;13.70;55.90
24217;DHT22;12356;49.386;8.688;2022-11-02T08:55:12;13.60;55.00
24217;DHT22;12356;49.386;8.688;2022-11-02T08:57:51;13.70;55.10
24217;DHT22;12356;49.386;8.688;2022-11-02T09:00:24;13.70;54.70
24217;DHT22;12356;49.386;8.688;2022-11-02T09:03:02;13.70;54.60
24217;DHT22;12356;49.386;8.688;2022-11-02T09:05:44;13.70;55.00
24217;DHT22;12356;49.386;8.688;2022-11-02T09:08:17;13.70;55.30
24217;DHT22;12356;49.386;8.688;2022-11-02T09:10:52;13.70;55.10
24217;DHT22;12356;49.386;8.688;2022-11-02T09:13:23;13.70;54.20
24217;DHT22;12356;49.386;8.688;2022-11-02T09:15:58;13.70;54.20
24217;DHT22;12356;49.386;8.688;2022-11-02T09:18:29;13.70;54.60
24217;DHT22;12356;49.386;8.688;2022-11-02T09:21:01;13.80;54.70
24217;DHT22;12356;49.386;8.688;2022-11-02T09:23:32;13.80;53.30
24217;DHT22;12356;49.386;8.688;2022-11-02T09:26:03;13.80;52.80
24217;DHT22;12356;49.386;8.688;2022-11-02T09:28:34;13.90;53.70
24217;DHT22;12356;49.386;8.688;2022-11-02T09:31:04;13.90;53.80
24217;DHT22;12356;49.386;8.688;2022-11-02T09:33:35;14.00;53.90
24217;DHT22;12356;49.386;8.688;2022-11-02T09:36:06;14.00;52.50
24217;DHT22;12356;49.386;8.688;2022-11-02T09:38:36;14.10;51.60
24217;DHT22;12356;49.386;8.688;2022-11-02T09:41:11;14.20;50.80
24217;DHT22;12356;49.386;8.688;2022-11-02T09:44:46;14.20;50.50
24217;DHT22;12356;49.386;8.688;2022-11-02T09:46:46;14.40;48.70
24217;DHT22;12356;49.386;8.688;2022-11-02T09:49:22;14.50;48.60
24217;DHT22;12356;49.386;8.688;2022-11-02T09:51:58;14.50;47.40
24217;DHT22;12356;49.386;8.688;2022-11-02T09:54:42;14.60;46.20
24217;DHT22;12356;49.386;8.688;2022-11-02T09:57:19;14.70;44.90
24217;DHT22;12356;49.386;8.688;2022-11-02T09:59:50;14.70;42.90
24217;DHT22;12356;49.386;8.688;2022-11-02T10:05:40;14.80;41.50
24217;DHT22;12356;49.386;8.688;2022-11-02T10:13:45;14.90;38.60
24217;DHT22;12356;49.386;8.688;2022-11-02T10:16:23;15.00;39.10
24217;DHT22;12356;49.386;8.688;2022-11-02T10:18:55;15.00;37.80
24217;DHT22;12356;49.386;8.688;2022-11-02T10:21:31;15.00;37.40
24217;DHT22;12356;49.386;8.688;2022-11-02T10:26:55;15.10;36.60
24217;DHT22;12356;49.386;8.688;2022-11-02T10:30:03;15.10;36.60
24217;DHT22;12356;49.386;8.688;2022-11-02T10:32:35;15.20;35.20
24217;DHT22;12356;49.386;8.688;2022-11-02T10:40:59;15.20;34.70
24217;DHT22;12356;49.386;8.688;2022-11-02T10:52:04;15.30;35.00
24217;DHT22;12356;49.386;8.688;2022-11-02T10:54:34;15.40;34.60
24217;DHT22;12356;49.386;8.688;2022-11-02T10:57:13;15.40;35.30
24217;DHT22;12356;49.386;8.688;2022-11-02T10:59:43;15.40;34.00
24217;DHT22;12356;49.386;8.688;2022-11-02T11:02:14;15.50;34.10
24217;DHT22;12356;49.386;8.688;2022-11-02T11:04:47;15.50;33.90
24217;DHT22;12356;49.386;8.688;2022-11-02T11:07:27;15.50;34.00
24217;DHT22;12356;49.386;8.688;2022-11-02T11:09:58;15.50;32.80
24217;DHT22;12356;49.386;8.688;2022-11-02T11:15:02;15.50;33.30
24217;DHT22;12356;49.386;8.688;2022-11-02T11:17:36;15.50;32.20
24217;DHT22;12356;49.386;8.688;2022-11-02T11:20:36;15.40;33.30
24217;DHT22;12356;49.386;8.688;2022-11-02T11:25:42;15.50;32.90
24217;DHT22;12356;49.386;8.688;2022-11-02T11:28:22;15.60;32.90
24217;DHT22;12356;49.386;8.688;2022-11-02T11:31:14;15.70;32.70
24217;DHT22;12356;49.386;8.688;2022-11-02T11:36:31;15.80;29.90
24217;DHT22;12356;49.386;8.688;2022-11-02T11:39:27;15.80;30.50
24217;DHT22;12356;49.386;8.688;2022-11-02T11:42:01;15.80;30.00
24217;DHT22;12356;49.386;8.688;2022-11-02T11:44:33;15.80;28.70
24217;DHT22;12356;49.386;8.688;2022-11-02T11:47:04;15.80;27.60
24217;DHT22;12356;49.386;8.688;2022-11-02T11:49:37;15.80;24.80
24217;DHT22;12356;49.386;8.688;2022-11-02T11:52:16;15.80;23.10
24217;DHT22;12356;49.386;8.688;2022-11-02T11:54:59;15.80;21.10
24217;DHT22;12356;49.386;8.688;2022-11-02T11:57:31;15.80;22.00
24217;DHT22;12356;49.386;8.688;2022-11-02T12:00:24;15.70;20.80
24217;DHT22;12356;49.386;8.688;2022-11-02T12:03:09;15.80;20.90
24217;DHT22;12356;49.386;8.688;2022-11-02T12:06:02;15.80;20.00
24217;DHT22;12356;49.386;8.688;2022-11-02T12:08:47;15.80;19.40
24217;DHT22;12356;49.386;8.688;2022-11-02T12:17:27;15.90;18.60
24217;DHT22;12356;49.386;8.688;2022-11-02T12:20:34;16.00;17.40
24217;DHT22;12356;49.386;8.688;2022-11-02T12:25:59;16.00;16.10
24217;DHT22;12356;49.386;8.688;2022-11-02T12:31:43;16.10;17.60
24217;DHT22;12356;49.386;8.688;2022-11-02T12:39:49;16.10;14.30
24217;DHT22;12356;49.386;8.688;2022-11-02T12:42:27;16.10;13.60
24217;DHT22;12356;49.386;8.688;2022-11-02T12:56:03;16.10;12.80
24217;DHT22;12356;49.386;8.688;2022-11-02T12:58:37;16.10;12.60
24217;DHT22;12356;49.386;8.688;2022-11-02T13:01:29;16.10;13.00
24217;DHT22;12356;49.386;8.688;2022-11-02T13:06:50;16.10;13.50
24217;DHT22;12356;49.386;8.688;2022-11-02T13:12:11;16.10;14.10
24217;DHT22;12356;49.386;8.688;2022-11-02T13:14:47;16.10;14.20
24217;DHT22;12356;49.386;8.688;2022-11-02T13:17:40;16.10;13.70
24217;DHT22;12356;49.386;8.688;2022-11-02T13:20:28;16.20;12.70
24217;DHT22;12356;49.386;8.688;2022-11-02T13:26:03;16.20;13.00
24217;DHT22;12356;49.386;8.688;2022-11-02T13:28:46;16.20;11.50
24217;DHT22;12356;49.386;8.688;2022-11-02T13:34:00;16.20;12.10
24217;DHT22;12356;49.386;8.688;2022-11-02T13:36:36;16.20;12.50
24217;DHT22;12356;49.386;8.688;2022-11-02T13:39:18;16.20;13.90
24217;DHT22;12356;49.386;8.688;2022-11-02T13:42:22;16.20;13.30
24217;DHT22;12356;49.386;8.688;2022-11-02T13:45:05;16.20;13.10
24217;DHT22;12356;49.386;8.688;2022-11-02T13:48:07;16.20;13.90
24217;DHT22;12356;49.386;8.688;2022-11-02T13:50:48;16.10;12.90
24217;DHT22;12356;49.386;8.688;2022-11-02T13:53:28;16.10;11.80
24217;DHT22;12356;49.386;8.688;2022-11-02T13:56:07;16.10;13.00
24217;DHT22;12356;49.386;8.688;2022-11-02T13:58:48;16.10;13.10
24217;DHT22;12356;49.386;8.688;2022-11-02T14:01:23;16.10;11.80
24217;DHT22;12356;49.386;8.688;2022-11-02T14:04:05;16.10;13.00
24217;DHT22;12356;49.386;8.688;2022-11-02T14:09:31;16.10;11.90
24217;DHT22;12356;49.386;8.688;2022-11-02T14:12:27;16.10;12.40
24217;DHT22;12356;49.386;8.688;2022-11-02T14:38:56;15.90;14.80
24217;DHT22;12356;49.386;8.688;2022-11-02T14:47:27;15.90;14.80
24217;DHT22;12356;49.386;8.688;2022-11-02T14:52:57;15.90;16.50
24217;DHT22;12356;49.386;8.688;2022-11-02T14:55:34;15.80;17.30
24217;DHT22;12356;49.386;8.688;2022-11-02T14:58:17;15.80;16.20
24217;DHT22;12356;49.386;8.688;2022-11-02T15:06:06;15.70;17.90
24217;DHT22;12356;49.386;8.688;2022-11-02T15:08:50;15.70;18.60
24217;DHT22;12356;49.386;8.688;2022-11-02T15:11:47;15.60;19.60
24217;DHT22;12356;49.386;8.688;2022-11-02T15:25:26;15.30;22.70
24217;DHT22;12356;49.386;8.688;2022-11-02T15:28:28;15.40;23.60
24217;DHT22;12356;49.386;8.688;2022-11-02T15:31:03;15.30;23.80
24217;DHT22;12356;49.386;8.688;2022-11-02T15:33:38;15.20;23.60
24217;DHT22;12356;49.386;8.688;2022-11-02T15:36:32;15.20;23.10
24217;DHT22;12356;49.386;8.688;2022-11-02T15:39:06;15.10;22.80
24217;DHT22;12356;49.386;8.688;2022-11-02T15:44:54;15.10;23.40
24217;DHT22;12356;49.386;8.688;2022-11-02T15:47:50;15.10;23.10
24217;DHT22;12356;49.386;8.688;2022-11-02T15:53:35;15.00;24.40
24217;DHT22;12356;49.386;8.688;2022-11-02T15:56:19;15.00;24.30
24217;DHT22;12356;49.386;8.688;2022-11-02T16:02:17;15.00;26.20
24217;DHT22;12356;49.386;8.688;2022-11-02T16:04:56;14.90;26.50
24217;DHT22;12356;49.386;8.688;2022-11-02T16:07:29;14.80;26.40
24217;DHT22;12356;49.386;8.688;2022-11-02T16:13:17;14.70;28.10
24217;DHT22;12356;49.386;8.688;2022-11-02T16:15:49;14.60;28.10
24217;DHT22;12356;49.386;8.688;2022-11-02T16:18:29;14.60;28.70
24217;DHT22;12356;49.386;8.688;2022-11-02T16:21:00;14.50;28.60
24217;DHT22;12356;49.386;8.688;2022-11-02T16:23:34;14.50;29.10
24217;DHT22;12356;49.386;8.688;2022-11-02T16:26:06;14.50;29.10
24217;DHT22;12356;49.386;8.688;2022-11-02T16:28:50;14.40;29.70
24217;DHT22;12356;49.386;8.688;2022-11-02T16:31:23;14.30;29.70
24217;DHT22;12356;49.386;8.688;2022-11-02T16:34:02;14.20;30.10
24217;DHT22;12356;49.386;8.688;2022-11-02T16:36:35;14.20;30.30
24217;DHT22;12356;49.386;8.688;2022-11-02T16:39:14;14.10;31.20
24217;DHT22;12356;49.386;8.688;2022-11-02T16:41:49;14.10;31.70
24217;DHT22;12356;49.386;8.688;2022-11-02T16:44:33;14.00;31.80
24217;DHT22;12356;49.386;8.688;2022-11-02T16:49:57;13.90;33.20
24217;DHT22;12356;49.386;8.688;2022-11-02T16:52:33;13.90;32.20
24217;DHT22;12356;49.386;8.688;2022-11-02T16:55:32;13.80;32.30
24217;DHT22;12356;49.386;8.688;2022-11-02T16:58:06;13.80;32.40
24217;DHT22;12356;49.386;8.688;2022-11-02T17:00:37;13.80;32.50
24217;DHT22;12356;49.386;8.688;2022-11-02T17:03:09;13.80;33.10
24217;DHT22;12356;49.386;8.688;2022-11-02T17:05:47;13.70;33.00
24217;DHT22;12356;49.386;8.688;2022-11-02T17:08:30;13.70;32.60
24217;DHT22;12356;49.386;8.688;2022-11-02T17:11:03;13.70;32.70
24217;DHT22;12356;49.386;8.688;2022-11-02T17:13:36;13.70;33.00
24217;DHT22;12356;49.386;8.688;2022-11-02T17:16:09;13.60;32.60
24217;DHT22;12356;49.386;8.688;2022-11-02T17:18:40;13.60;33.00
24217;DHT22;12356;49.386;8.688;2022-11-02T17:23:43;13.60;32.50
24217;DHT22;12356;49.386;8.688;2022-11-02T17:26:24;13.50;31.80
24217;DHT22;12356;49.386;8.688;2022-11-02T17:31:33;13.50;30.50
24217;DHT22;12356;49.386;8.688;2022-11-02T17:34:09;13.50;30.30
24217;DHT22;12356;49.386;8.688;2022-11-02T17:36:44;13.40;30.00
24217;DHT22;12356;49.386;8.688;2022-11-02T17:39:17;13.50;29.10
24217;DHT22;12356;49.386;8.688;2022-11-02T17:41:52;13.50;28.10
24217;DHT22;12356;49.386;8.688;2022-11-02T17:44:42;13.50;28.70
24217;DHT22;12356;49.386;8.688;2022-11-02T17:47:17;13.40;28.90
24217;DHT22;12356;49.386;8.688;2022-11-02T17:49:48;13.50;29.40
24217;DHT22;12356;49.386;8.688;2022-11-02T17:52:18;13.40;29.80
24217;DHT22;12356;49.386;8.688;2022-11-02T17:54:49;13.40;29.80
24217;DHT22;12356;49.386;8.688;2022-11-02T17:57:19;13.40;29.20
24217;DHT22;12356;49.386;8.688;2022-11-02T17:59:50;13.30;29.50
24217;DHT22;12356;49.386;8.688;2022-11-02T18:02:21;13.30;30.00
24217;DHT22;12356;49.386;8.688;2022-11-02T18:04:52;13.30;30.00
24217;DHT22;12356;49.386;8.688;2022-11-02T18:07:23;13.30;30.00
24217;DHT22;12356;49.386;8.688;2022-11-02T18:09:53;13.30;30.30
24217;DHT22;12356;49.386;8.688;2022-11-02T18:12:24;13.30;30.00
24217;DHT22;12356;49.386;8.688;2022-11-02T18:14:54;13.20;30.10
24217;DHT22;12356;49.386;8.688;2022-11-02T18:17:25;13.20;29.90
24217;DHT22;12356;49.386;8.688;2022-11-02T18:19:56;13.20;29.60
24217;DHT22;12356;49.386;8.688;2022-11-02T18:22:26;13.20;29.60
24217;DHT22;12356;49.386;8.688;2022-11-02T18:24:57;13.20;30.10
24217;DHT22;12356;49.386;8.688;2022-11-02T18:27:28;13.20;29.90
24217;DHT22;12356;49.386;8.688;2022-11-02T18:29:58;13.20;30.80
24217;DHT22;12356;49.386;8.688;2022-11-02T18:32:29;13.10;30.70
24217;DHT22;12356;49.386;8.688;2022-11-02T18:34:59;13.10;30.80
24217;DHT22;12356;49.386;8.688;2022-11-02T18:37:30;13.10;30.60
24217;DHT22;12356;49.386;8.688;2022-11-02T18:40:02;13.00;31.00
24217;DHT22;12356;49.386;8.688;2022-11-02T18:42:37;13.00;31.00
24217;DHT22;12356;49.386;8.688;2022-11-02T18:45:10;13.00;31.50
24217;DHT22;12356;49.386;8.688;2022-11-02T18:47:41;12.90;32.20
24217;DHT22;12356;49.386;8.688;2022-11-02T18:50:12;12.90;32.30
24217;DHT22;12356;49.386;8.688;2022-11-02T18:52:45;12.90;32.60
24217;DHT22;12356;49.386;8.688;2022-11-02T18:55:18;12.90;33.30
24217;DHT22;12356;49.386;8.688;2022-11-02T18:57:49;12.80;33.50
24217;DHT22;12356;49.386;8.688;2022-11-02T19:00:20;12.90;33.50
24217;DHT22;12356;49.386;8.688;2022-11-02T19:02:51;12.80;33.40
24217;DHT22;12356;49.386;8.688;2022-11-02T19:05:21;12.80;34.10
24217;DHT22;12356;49.386;8.688;2022-11-02T19:08:21;12.80;34.40
24217;DHT22;12356;49.386;8.688;2022-11-02T19:11:10;12.80;35.00
24217;DHT22;12356;49.386;8.688;2022-11-02T19:13:41;12.80;34.70
24217;DHT22;12356;49.386;8.688;2022-11-02T19:16:12;12.70;34.60